Time;durP1;ratioP1;P1;durP2;ratioP2;P2;SDS_P1;SDS_P2;PMS_P1;PMS_P2;Temp;Humidity;BMP_temperature;BMP_pressure;BME280_temperature;BME280_humidity;BME280_pressure;Samples;Min_cycle;Max_cycle;Signal;HPM_P1;HPM_P2
2022/05/01 00:00:28;;;;;;;3.17;2.55;;;;;;;;;;4952655;29;20057;-78
2022/05/01 00:02:54;;;;;;;4.72;2.45;;;;;;;;;;4968706;28;20114;-78
2022/05/01 00:05:19;;;;;;;4.05;2.40;;;;;;;;;;4935555;28;20057;-77
2022/05/01 00:07:45;;;;;;;3.50;2.60;;;;;;;;;;4936773;29;20103;-78
2022/05/01 00:10:10;;;;;;;2.53;2.20;;;;;;;;;;4952275;29;20354;-78
2022/05/01 00:12:36;;;;;;;3.05;2.20;;;;;;;;;;4952042;28;20034;-77
2022/05/01 00:15:03;;;;;;;3.33;2.05;;;;;;;;;;4952241;29;20398;-78
2022/05/01 00:17:29;;;;;;;3.83;2.20;;;;;;;;;;4920857;29;20450;-78
2022/05/01 00:19:55;;;;;;;5.85;2.80;;;;;;;;;;4952034;29;20143;-78
2022/05/01 00:22:20;;;;;;;4.10;2.50;;;;;;;;;;4952263;29;20098;-77
2022/05/01 00:24:46;;;;;;;2.35;2.15;;;;;;;;;;4936184;29;20168;-78
2022/05/01 00:27:12;;;;;;;2.25;2.05;;;;;;;;;;4952056;29;20038;-77
2022/05/01 00:29:37;;;;;;;4.03;2.10;;;;;;;;;;4953513;29;20038;-78
2022/05/01 00:32:04;;;;;;;2.60;2.10;;;;;;;;;;4953419;28;20467;-78
2022/05/01 00:37:14;;;;;;;3.33;2.20;;;;;;;;;;4952124;29;20042;-77
2022/05/01 00:39:39;;;;;;;2.33;2.13;;;;;;;;;;4951832;29;20035;-78
2022/05/01 00:42:05;;;;;;;3.60;2.10;;;;;;;;;;4920470;29;20483;-78
2022/05/01 00:44:30;;;;;;;3.65;2.38;;;;;;;;;;4951872;29;20023;-78
2022/05/01 00:46:59;;;;;;;2.65;2.40;;;;;;;;;;4951755;28;20031;-78
2022/05/01 00:49:26;;;;;;;4.97;2.35;;;;;;;;;;4951968;29;20031;-78
2022/05/01 00:51:57;;;;;;;3.30;2.47;;;;;;;;;;4951650;28;20387;-78
2022/05/01 00:54:30;;;;;;;3.13;2.50;;;;;;;;;;4951579;28;20134;-78
2022/05/01 00:57:01;;;;;;;3.10;2.27;;;;;;;;;;4951725;29;20442;-78
2022/05/01 00:59:27;;;;;;;2.33;2.13;;;;;;;;;;4919907;29;20328;-78
2022/05/01 01:01:53;;;;;;;3.60;2.53;;;;;;;;;;4935796;29;20035;-78
2022/05/01 01:04:19;;;;;;;3.83;2.70;;;;;;;;;;4951864;29;20232;-78
2022/05/01 01:06:44;;;;;;;3.10;2.33;;;;;;;;;;4951687;29;20042;-77
2022/05/01 01:09:11;;;;;;;2.88;2.17;;;;;;;;;;4952923;29;20071;-78
2022/05/01 01:11:38;;;;;;;3.05;2.53;;;;;;;;;;4951494;29;20438;-78
2022/05/01 01:14:05;;;;;;;2.58;2.38;;;;;;;;;;4920119;29;20027;-78
2022/05/01 01:16:37;;;;;;;4.55;2.60;;;;;;;;;;4939544;28;20094;-78
2022/05/01 01:19:04;;;;;;;3.30;2.28;;;;;;;;;;4956036;28;20035;-77
2022/05/01 01:21:29;;;;;;;3.67;2.55;;;;;;;;;;4955638;29;20098;-77
2022/05/01 01:23:55;;;;;;;4.53;2.20;;;;;;;;;;4939719;29;20477;-79
2022/05/01 01:26:21;;;;;;;2.40;2.20;;;;;;;;;;4955448;29;20114;-78
2022/05/01 01:28:47;;;;;;;4.93;2.63;;;;;;;;;;4939764;29;20039;-77
2022/05/01 01:34:15;;;;;;;3.17;2.22;;;;;;;;;;4955584;29;20070;-78
2022/05/01 01:36:42;;;;;;;3.58;2.70;;;;;;;;;;4955315;28;20126;-78
2022/05/01 01:39:08;;;;;;;2.30;2.10;;;;;;;;;;4954987;29;20027;-77
2022/05/01 01:41:35;;;;;;;2.97;2.40;;;;;;;;;;4971000;28;20030;-77
2022/05/01 01:44:01;;;;;;;2.58;2.25;;;;;;;;;;4954943;29;20053;-78
2022/05/01 01:46:26;;;;;;;3.78;2.53;;;;;;;;;;4939103;29;20557;-79
2022/05/01 01:48:52;;;;;;;2.70;2.50;;;;;;;;;;4938930;29;20031;-77
2022/05/01 01:51:18;;;;;;;3.15;2.20;;;;;;;;;;4954759;29;20033;-77
2022/05/01 01:53:44;;;;;;;3.00;2.38;;;;;;;;;;4938759;29;20390;-76
2022/05/01 01:56:10;;;;;;;2.25;2.05;;;;;;;;;;4954838;29;20115;-79
2022/05/01 01:58:37;;;;;;;2.40;2.15;;;;;;;;;;4954728;29;20537;-78
2022/05/01 02:01:04;;;;;;;2.30;2.10;;;;;;;;;;4954864;29;20059;-77
2022/05/01 02:03:29;;;;;;;3.03;2.45;;;;;;;;;;4938899;29;20054;-79
2022/05/01 02:05:55;;;;;;;2.45;2.10;;;;;;;;;;4954781;29;20055;-79
2022/05/01 02:08:20;;;;;;;3.15;2.30;;;;;;;;;;4954735;29;20031;-79
2022/05/01 02:10:49;;;;;;;3.40;2.08;;;;;;;;;;4954848;29;20058;-79
2022/05/01 02:13:15;;;;;;;9.93;2.30;;;;;;;;;;4954891;29;20034;-78
2022/05/01 02:15:41;;;;;;;3.20;1.92;;;;;;;;;;4954525;29;20023;-78
2022/05/01 02:18:06;;;;;;;2.63;2.30;;;;;;;;;;4954348;29;20031;-78
2022/05/01 02:21:34;;;;;;;2.45;2.22;;;;;;;;;;4954535;29;20094;-78
2022/05/01 02:23:20;;;;;;;3.08;2.10;;;;;;;;;;4954411;29;20390;-78
2022/05/01 02:25:46;;;;;;;3.67;2.00;;;;;;;;;;4938647;29;20023;-78
2022/05/01 02:28:12;;;;;;;2.55;2.13;;;;;;;;;;4953168;28;20046;-78
2022/05/01 02:30:38;;;;;;;4.68;2.40;;;;;;;;;;4938045;29;20031;-78
2022/05/01 02:33:06;;;;;;;3.88;2.20;;;;;;;;;;4954281;28;20023;-78
2022/05/01 02:35:32;;;;;;;7.20;3.92;;;;;;;;;;4953940;29;20126;-77
2022/05/01 02:37:58;;;;;;;2.33;2.13;;;;;;;;;;4954015;29;20020;-77
2022/05/01 02:40:24;;;;;;;2.42;2.00;;;;;;;;;;4955596;29;20042;-77
2022/05/01 02:42:49;;;;;;;4.18;2.28;;;;;;;;;;4954113;29;20477;-77
2022/05/01 02:45:14;;;;;;;2.70;1.90;;;;;;;;;;4955311;29;20028;-77
2022/05/01 02:47:40;;;;;;;4.30;2.20;;;;;;;;;;4954286;29;20424;-77
2022/05/01 02:50:07;;;;;;;2.13;1.92;;;;;;;;;;4937680;29;20035;-76
2022/05/01 02:52:32;;;;;;;2.22;1.95;;;;;;;;;;4922608;29;20465;-77
2022/05/01 02:54:58;;;;;;;2.72;2.08;;;;;;;;;;4937776;29;20055;-77
2022/05/01 02:57:23;;;;;;;2.70;2.20;;;;;;;;;;4969805;28;20122;-77
2022/05/01 02:59:48;;;;;;;2.75;1.90;;;;;;;;;;4953791;29;20035;-77
2022/05/01 03:02:15;;;;;;;2.55;2.15;;;;;;;;;;4922018;29;20431;-77
2022/05/01 03:04:40;;;;;;;3.05;2.25;;;;;;;;;;4953883;29;20035;-77
2022/05/01 03:07:07;;;;;;;2.75;2.08;;;;;;;;;;4937812;29;20035;-77
2022/05/01 03:09:33;;;;;;;3.58;2.20;;;;;;;;;;4953521;29;20055;-77
2022/05/01 03:11:58;;;;;;;2.92;2.50;;;;;;;;;;4953358;28;20493;-77
2022/05/01 03:14:23;;;;;;;3.95;2.35;;;;;;;;;;4954981;29;20146;-77
2022/05/01 03:16:49;;;;;;;2.53;2.10;;;;;;;;;;4937621;29;20043;-78
2022/05/01 03:22:13;;;;;;;2.40;2.20;;;;;;;;;;4954716;29;20563;-78
2022/05/01 03:24:40;;;;;;;4.15;2.45;;;;;;;;;;4954647;29;20118;-77
2022/05/01 03:27:06;;;;;;;2.80;2.20;;;;;;;;;;4953601;29;20047;-77
2022/05/01 03:29:32;;;;;;;3.28;1.80;;;;;;;;;;4955168;29;20082;-75
2022/05/01 03:31:59;;;;;;;1.95;1.77;;;;;;;;;;4953372;28;20043;-77
2022/05/01 03:34:26;;;;;;;2.00;1.90;;;;;;;;;;4953078;29;20034;-76
2022/05/01 03:36:54;;;;;;;2.63;2.20;;;;;;;;;;4921827;29;20154;-79
2022/05/01 03:39:20;;;;;;;3.58;2.40;;;;;;;;;;4968867;28;20453;-77
2022/05/01 03:41:46;;;;;;;3.47;2.45;;;;;;;;;;4937213;28;20031;-79
2022/05/01 03:44:12;;;;;;;3.50;2.60;;;;;;;;;;4953105;29;20031;-79
2022/05/01 03:46:38;;;;;;;2.53;2.22;;;;;;;;;;4952995;29;20031;-76
2022/05/01 03:49:06;;;;;;;3.03;2.15;;;;;;;;;;4953117;29;20359;-79
2022/05/01 03:51:33;;;;;;;4.47;2.75;;;;;;;;;;4952729;29;20036;-76
2022/05/01 03:54:02;;;;;;;2.85;2.40;;;;;;;;;;4936906;29;20038;-78
2022/05/01 03:56:31;;;;;;;2.28;2.08;;;;;;;;;;4936612;29;20043;-78
2022/05/01 03:58:57;;;;;;;3.15;2.08;;;;;;;;;;4952916;29;20031;-78
2022/05/01 04:01:24;;;;;;;2.25;2.00;;;;;;;;;;4952499;29;20423;-78
2022/05/01 04:03:50;;;;;;;2.10;1.80;;;;;;;;;;4936580;29;20035;-77
2022/05/01 04:06:15;;;;;;;2.30;2.10;;;;;;;;;;4952491;29;20443;-77
2022/05/01 04:08:42;;;;;;;1.98;1.80;;;;;;;;;;4952584;29;20038;-78
2022/05/01 04:11:07;;;;;;;1.90;1.70;;;;;;;;;;4952493;29;20106;-77
2022/05/01 04:13:33;;;;;;;2.17;1.98;;;;;;;;;;4952294;29;20451;-78
2022/05/01 04:15:58;;;;;;;2.28;2.08;;;;;;;;;;4952327;29;20046;-78
2022/05/01 04:18:24;;;;;;;2.40;2.20;;;;;;;;;;4936463;29;20130;-78
2022/05/01 04:20:51;;;;;;;3.05;2.08;;;;;;;;;;4936634;29;20110;-78
2022/05/01 04:23:16;;;;;;;2.70;2.00;;;;;;;;;;4952449;29;20031;-78
2022/05/01 04:25:42;;;;;;;2.13;1.92;;;;;;;;;;4952182;29;20118;-78
2022/05/01 04:28:09;;;;;;;2.15;1.95;;;;;;;;;;4952367;29;20038;-78
2022/05/01 04:30:35;;;;;;;1.80;1.70;;;;;;;;;;4936267;29;20415;-78
2022/05/01 04:33:02;;;;;;;2.67;2.20;;;;;;;;;;4952704;28;20034;-78
2022/05/01 04:35:29;;;;;;;2.28;2.08;;;;;;;;;;4952729;29;20534;-77
2022/05/01 04:38:00;;;;;;;2.28;2.08;;;;;;;;;;4952631;29;20038;-77
2022/05/01 04:40:30;;;;;;;4.68;2.60;;;;;;;;;;4953185;29;20026;-77
2022/05/01 04:43:04;;;;;;;2.92;2.20;;;;;;;;;;4952803;29;20030;-77
2022/05/01 04:45:30;;;;;;;2.70;2.17;;;;;;;;;;4953923;29;20023;-77
2022/05/01 04:47:56;;;;;;;4.45;1.83;;;;;;;;;;4953092;29;20159;-78
2022/05/01 04:50:22;;;;;;;2.28;1.70;;;;;;;;;;4953398;28;20028;-77
2022/05/01 04:52:47;;;;;;;2.55;2.00;;;;;;;;;;4936539;29;20031;-78
2022/05/01 04:55:13;;;;;;;2.53;1.88;;;;;;;;;;4936381;29;20051;-78
2022/05/01 04:57:39;;;;;;;2.40;2.13;;;;;;;;;;4952421;29;20474;-78
2022/05/01 05:00:06;;;;;;;2.38;2.17;;;;;;;;;;4952568;28;20027;-78
2022/05/01 05:02:39;;;;;;;2.10;1.90;;;;;;;;;;4952168;28;20024;-78
2022/05/01 05:05:06;;;;;;;3.13;2.17;;;;;;;;;;4952494;28;20482;-77
2022/05/01 05:07:32;;;;;;;2.38;2.17;;;;;;;;;;4952606;29;20046;-77
2022/05/01 05:09:58;;;;;;;2.15;1.90;;;;;;;;;;4952598;29;20027;-77
2022/05/01 05:12:24;;;;;;;3.13;2.33;;;;;;;;;;4952489;29;20058;-77
2022/05/01 05:14:51;;;;;;;2.78;1.98;;;;;;;;;;4936253;29;20484;-77
2022/05/01 05:17:20;;;;;;;2.08;1.80;;;;;;;;;;4952325;29;20091;-77
2022/05/01 05:19:46;;;;;;;2.30;2.00;;;;;;;;;;4953957;29;20038;-77
2022/05/01 05:22:12;;;;;;;1.83;1.73;;;;;;;;;;4952232;29;20035;-77
2022/05/01 05:24:38;;;;;;;2.90;2.28;;;;;;;;;;4952222;29;20093;-77
2022/05/01 05:27:04;;;;;;;1.77;1.67;;;;;;;;;;4936179;29;20133;-77
2022/05/01 05:29:29;;;;;;;1.83;1.67;;;;;;;;;;4936163;29;20093;-77
2022/05/01 05:31:55;;;;;;;3.55;2.15;;;;;;;;;;4952037;28;20031;-77
2022/05/01 05:34:20;;;;;;;2.60;2.25;;;;;;;;;;4952177;29;20115;-77
2022/05/01 05:36:46;;;;;;;3.83;2.03;;;;;;;;;;4936138;29;20035;-77
2022/05/01 05:39:11;;;;;;;2.67;2.40;;;;;;;;;;4936450;29;20053;-77
2022/05/01 05:41:37;;;;;;;2.53;1.95;;;;;;;;;;4936128;29;20062;-77
2022/05/01 05:44:04;;;;;;;2.38;1.95;;;;;;;;;;4951989;29;20497;-78
2022/05/01 05:46:29;;;;;;;2.97;2.40;;;;;;;;;;4920402;29;20031;-78
2022/05/01 05:48:55;;;;;;;2.53;2.33;;;;;;;;;;4952497;29;20090;-76
2022/05/01 05:51:21;;;;;;;2.72;2.33;;;;;;;;;;4954786;29;20090;-78
2022/05/01 05:53:46;;;;;;;2.60;2.28;;;;;;;;;;4953138;29;20415;-77
2022/05/01 05:56:12;;;;;;;2.50;1.90;;;;;;;;;;4937649;28;20086;-77
2022/05/01 05:58:37;;;;;;;2.40;2.20;;;;;;;;;;4936301;29;20036;-77
2022/05/01 06:01:03;;;;;;;2.67;2.30;;;;;;;;;;4920906;28;20031;-77
2022/05/01 06:03:28;;;;;;;2.40;2.15;;;;;;;;;;4954548;29;20027;-76
2022/05/01 06:05:53;;;;;;;3.25;2.17;;;;;;;;;;4957217;29;20050;-76
2022/05/01 06:08:19;;;;;;;2.80;2.20;;;;;;;;;;4955542;29;20031;-75
2022/05/01 06:10:44;;;;;;;3.72;2.47;;;;;;;;;;4956984;29;20103;-76
2022/05/01 06:13:10;;;;;;;3.15;2.63;;;;;;;;;;4939543;29;20027;-78
2022/05/01 06:15:37;;;;;;;4.72;2.47;;;;;;;;;;4956190;29;20031;-77
2022/05/01 06:18:02;;;;;;;4.03;2.88;;;;;;;;;;4956963;29;20039;-78
2022/05/01 06:20:28;;;;;;;5.15;2.88;;;;;;;;;;4923517;29;20114;-78
2022/05/01 06:22:53;;;;;;;3.38;2.70;;;;;;;;;;4956414;29;20490;-78
2022/05/01 06:25:19;;;;;;;3.63;2.42;;;;;;;;;;4956536;29;20077;-78
2022/05/01 06:27:44;;;;;;;3.97;2.90;;;;;;;;;;4954944;29;20130;-78
2022/05/01 06:30:11;;;;;;;3.47;2.67;;;;;;;;;;4955086;29;20023;-79
2022/05/01 06:32:38;;;;;;;5.78;2.72;;;;;;;;;;4955998;28;20035;-79
2022/05/01 06:35:04;;;;;;;3.80;2.95;;;;;;;;;;4956298;29;20400;-79
2022/05/01 06:37:30;;;;;;;5.20;3.00;;;;;;;;;;4938948;29;20111;-80
2022/05/01 06:39:55;;;;;;;5.13;2.80;;;;;;;;;;4939123;29;20063;-81
2022/05/01 06:42:20;;;;;;;4.45;3.45;;;;;;;;;;4954679;29;20035;-78
2022/05/01 06:44:46;;;;;;;4.00;3.13;;;;;;;;;;4955819;29;20536;-78
2022/05/01 06:47:13;;;;;;;4.22;2.92;;;;;;;;;;4954648;29;20031;-78
2022/05/01 06:49:38;;;;;;;4.75;3.40;;;;;;;;;;4970650;28;20118;-78
2022/05/01 06:52:04;;;;;;;4.32;3.30;;;;;;;;;;4938558;29;20059;-78
2022/05/01 06:54:29;;;;;;;4.70;2.90;;;;;;;;;;4956048;29;20039;-79
2022/05/01 06:56:54;;;;;;;4.25;3.15;;;;;;;;;;4955794;28;20034;-78
2022/05/01 06:59:20;;;;;;;6.88;3.10;;;;;;;;;;4938421;29;20031;-78
2022/05/01 07:01:47;;;;;;;4.60;3.03;;;;;;;;;;4954535;29;20031;-78
2022/05/01 07:04:13;;;;;;;4.53;3.00;;;;;;;;;;4954573;28;20034;-78
2022/05/01 07:06:40;;;;;;;4.75;2.88;;;;;;;;;;4954721;29;20385;-79
2022/05/01 07:09:05;;;;;;;3.00;2.72;;;;;;;;;;4954334;29;20082;-78
2022/05/01 07:11:31;;;;;;;3.63;2.90;;;;;;;;;;4938027;29;20035;-78
2022/05/01 07:13:56;;;;;;;5.65;3.05;;;;;;;;;;4955095;28;20098;-78
2022/05/01 07:16:22;;;;;;;3.85;3.17;;;;;;;;;;4955531;29;20501;-79
2022/05/01 07:18:47;;;;;;;5.70;3.53;;;;;;;;;;4955473;29;20122;-77
2022/05/01 07:21:13;;;;;;;5.10;3.28;;;;;;;;;;4955265;29;20553;-77
2022/05/01 07:23:38;;;;;;;7.05;3.13;;;;;;;;;;4954256;29;20415;-78
2022/05/01 07:26:03;;;;;;;5.18;3.38;;;;;;;;;;4937898;29;20035;-79
2022/05/01 07:28:29;;;;;;;3.63;2.80;;;;;;;;;;4937982;29;20154;-79
2022/05/01 07:30:54;;;;;;;6.65;3.13;;;;;;;;;;4954985;29;20038;-80
2022/05/01 07:33:20;;;;;;;3.90;3.25;;;;;;;;;;4954884;28;20174;-79
2022/05/01 07:35:46;;;;;;;7.38;3.20;;;;;;;;;;4954733;29;20031;-82
2022/05/01 07:38:11;;;;;;;10.52;3.88;;;;;;;;;;4953315;29;20050;-83
2022/05/01 07:40:37;;;;;;;14.80;5.50;;;;;;;;;;4937074;29;20446;-82
2022/05/01 07:43:03;;;;;;;17.20;6.30;;;;;;;;;;4952694;29;20031;-82
2022/05/01 07:45:28;;;;;;;17.20;7.00;;;;;;;;;;4952840;29;20027;-82
2022/05/01 07:47:53;;;;;;;16.08;6.85;;;;;;;;;;4954307;29;20350;-82
2022/05/01 07:50:20;;;;;;;20.15;6.40;;;;;;;;;;4936402;29;20027;-81
2022/05/01 07:52:46;;;;;;;16.92;5.30;;;;;;;;;;4937111;29;20035;-81
2022/05/01 07:55:11;;;;;;;10.75;5.07;;;;;;;;;;4953517;29;20058;-81
2022/05/01 07:57:36;;;;;;;13.77;5.65;;;;;;;;;;4953167;29;20038;-83
2022/05/01 08:00:04;;;;;;;10.90;5.20;;;;;;;;;;4954478;29;20027;-82
2022/05/01 08:02:34;;;;;;;13.18;5.03;;;;;;;;;;4936475;29;20110;-81
2022/05/01 08:05:00;;;;;;;10.07;4.75;;;;;;;;;;4953004;28;20390;-81
2022/05/01 08:07:25;;;;;;;14.38;4.80;;;;;;;;;;4936578;29;20121;-82
2022/05/01 08:09:51;;;;;;;10.80;5.13;;;;;;;;;;4936581;29;20053;-82
2022/05/01 08:12:16;;;;;;;12.57;4.63;;;;;;;;;;4952150;29;20035;-82
2022/05/01 08:14:44;;;;;;;10.25;4.80;;;;;;;;;;4953402;29;20123;-82
2022/05/01 08:17:09;;;;;;;7.55;4.43;;;;;;;;;;4952593;29;20031;-82
2022/05/01 08:22:21;;;;;;;7.22;3.97;;;;;;;;;;4953961;29;20061;-83
2022/05/01 08:24:47;;;;;;;6.30;3.95;;;;;;;;;;4919837;29;20455;-84
2022/05/01 08:27:12;;;;;;;8.02;3.80;;;;;;;;;;4953816;29;20502;-83
2022/05/01 08:29:38;;;;;;;12.52;4.57;;;;;;;;;;4954075;29;20050;-84
2022/05/01 08:32:04;;;;;;;8.10;3.67;;;;;;;;;;4937221;29;20031;-84
2022/05/01 08:34:30;;;;;;;8.05;3.80;;;;;;;;;;4953397;29;20110;-82
2022/05/01 08:36:56;;;;;;;9.40;3.67;;;;;;;;;;4953852;29;20051;-80
2022/05/01 08:39:21;;;;;;;5.30;3.30;;;;;;;;;;4952621;29;20035;-78
2022/05/01 08:41:47;;;;;;;6.68;3.55;;;;;;;;;;4937005;28;20027;-79
2022/05/01 08:44:14;;;;;;;7.85;3.90;;;;;;;;;;4936953;29;20507;-80
2022/05/01 08:47:08;;;;;;;6.90;3.38;;;;;;;;;;4952991;29;20035;-81
2022/05/01 08:49:37;;;;;;;8.38;3.28;;;;;;;;;;4954650;28;20070;-79
2022/05/01 08:52:06;;;;;;;6.35;2.97;;;;;;;;;;4952537;29;20114;-79
2022/05/01 08:54:32;;;;;;;6.15;3.15;;;;;;;;;;4952476;29;20421;-78
2022/05/01 08:56:58;;;;;;;6.57;2.88;;;;;;;;;;4948521;28;20561;-82
2022/05/01 08:59:23;;;;;;;9.13;3.78;;;;;;;;;;4932695;28;20036;-80
2022/05/01 09:01:55;;;;;;;8.57;3.35;;;;;;;;;;4937270;28;20458;-78
2022/05/01 09:04:24;;;;;;;14.75;3.58;;;;;;;;;;4934973;29;20035;-78
2022/05/01 09:06:50;;;;;;;10.18;4.10;;;;;;;;;;4947985;28;20032;-78
2022/05/01 09:09:17;;;;;;;13.73;3.85;;;;;;;;;;4952519;28;20081;-78
2022/05/01 09:14:28;;;;;;;9.55;3.78;;;;;;;;;;4943657;28;20082;-80
2022/05/01 09:17:10;;;;;;;10.98;4.22;;;;;;;;;;4950631;28;20486;-81
2022/05/01 09:19:36;;;;;;;15.48;3.97;;;;;;;;;;4952617;28;20430;-81
2022/05/01 09:22:02;;;;;;;8.18;3.80;;;;;;;;;;4949698;28;20475;-80
2022/05/01 09:24:29;;;;;;;10.13;4.05;;;;;;;;;;4950733;28;20079;-80
2022/05/01 09:26:55;;;;;;;12.48;3.83;;;;;;;;;;4952226;28;20050;-81
2022/05/01 09:29:25;;;;;;;10.00;3.83;;;;;;;;;;4953154;28;20023;-80
2022/05/01 09:31:51;;;;;;;7.10;3.70;;;;;;;;;;4938219;28;20076;-81
2022/05/01 09:34:25;;;;;;;8.05;3.42;;;;;;;;;;4969991;28;20031;-81
2022/05/01 09:36:50;;;;;;;;;;;;;;;;;;4956248;28;20023;-81
2022/05/01 09:39:20;;;;;;;7.50;3.45;;;;;;;;;;4957196;28;19914;-81
2022/05/01 09:41:47;;;;;;;12.60;3.45;;;;;;;;;;4973508;28;20068;-80
2022/05/01 09:44:17;;;;;;;8.02;3.33;;;;;;;;;;4972718;28;20027;-81
2022/05/01 09:46:44;;;;;;;5.22;2.72;;;;;;;;;;4953122;28;20038;-80
2022/05/01 09:49:13;;;;;;;5.97;2.90;;;;;;;;;;4973374;28;20070;-81
2022/05/01 09:51:46;;;;;;;9.98;3.25;;;;;;;;;;4957472;28;20034;-81
2022/05/01 09:54:25;;;;;;;10.63;3.70;;;;;;;;;;4953328;28;20474;-81
2022/05/01 09:56:52;;;;;;;8.02;3.10;;;;;;;;;;4952062;28;20031;-82
2022/05/01 09:59:20;;;;;;;5.55;3.03;;;;;;;;;;4957346;28;20119;-82
2022/05/01 10:01:55;;;;;;;6.18;2.80;;;;;;;;;;4941470;28;20041;-81
2022/05/01 10:04:22;;;;;;;7.13;3.53;;;;;;;;;;4973328;28;20023;-80
2022/05/01 10:06:47;;;;;;;6.85;3.03;;;;;;;;;;4954291;28;20031;-83
2022/05/01 10:09:14;;;;;;;10.13;3.30;;;;;;;;;;4953300;28;20038;-80
2022/05/01 10:11:41;;;;;;;6.65;3.38;;;;;;;;;;4953763;28;20027;-80
2022/05/01 10:14:07;;;;;;;8.30;3.10;;;;;;;;;;4926442;28;20121;-80
2022/05/01 10:16:32;;;;;;;12.50;3.13;;;;;;;;;;4940211;28;20386;-80
2022/05/01 10:18:59;;;;;;;7.68;3.13;;;;;;;;;;4953343;28;20067;-81
2022/05/01 10:21:25;;;;;;;7.88;2.50;;;;;;;;;;4952823;28;20132;-81
2022/05/01 10:23:51;;;;;;;6.07;2.67;;;;;;;;;;4934896;29;20059;-81
2022/05/01 10:26:29;;;;;;;9.00;2.83;;;;;;;;;;4929972;28;20031;-81
2022/05/01 10:29:15;;;;;;;7.40;2.80;;;;;;;;;;4954351;28;20023;-81
2022/05/01 10:34:58;;;;;;;7.25;2.85;;;;;;;;;;4955661;28;20053;-82
2022/05/01 10:38:02;;;;;;;6.45;2.33;;;;;;;;;;4952499;28;20111;-83
2022/05/01 10:40:40;;;;;;;5.63;2.47;;;;;;;;;;4953569;28;20034;-83
2022/05/01 10:43:24;;;;;;;6.45;2.65;;;;;;;;;;4951930;28;20554;-81
2022/05/01 10:45:51;;;;;;;6.75;2.65;;;;;;;;;;4950291;28;20122;-81
2022/05/01 10:48:41;;;;;;;4.60;2.60;;;;;;;;;;4932844;28;20066;-81
2022/05/01 10:51:31;;;;;;;4.25;2.30;;;;;;;;;;4951263;28;20387;-83
2022/05/01 10:54:19;;;;;;;4.68;2.50;;;;;;;;;;4954584;28;20035;-81
2022/05/01 10:56:51;;;;;;;5.43;2.72;;;;;;;;;;4955003;28;20043;-82
2022/05/01 10:59:29;;;;;;;7.63;3.40;;;;;;;;;;4955878;28;20655;-84
2022/05/01 11:01:55;;;;;;;7.65;3.03;;;;;;;;;;4956509;28;20027;-84
2022/05/01 11:04:21;;;;;;;6.97;2.70;;;;;;;;;;4939589;28;20194;-82
2022/05/01 11:06:50;;;;;;;6.53;2.53;;;;;;;;;;4939956;28;20250;-84
2022/05/01 11:09:19;;;;;;;3.72;2.35;;;;;;;;;;4956197;28;20113;-82
2022/05/01 11:11:45;;;;;;;5.68;2.40;;;;;;;;;;4952870;28;20477;-82
2022/05/01 11:14:13;;;;;;;9.10;2.70;;;;;;;;;;4930931;28;20055;-82
2022/05/01 11:16:52;;;;;;;6.28;2.50;;;;;;;;;;4952019;28;20126;-82
2022/05/01 11:19:17;;;;;;;12.15;2.70;;;;;;;;;;4949807;28;20035;-83
2022/05/01 11:21:47;;;;;;;5.10;2.20;;;;;;;;;;4950739;28;20032;-83
2022/05/01 11:24:15;;;;;;;7.38;2.50;;;;;;;;;;4952678;28;20031;-83
2022/05/01 11:27:26;;;;;;;3.78;2.08;;;;;;;;;;4949193;29;20027;-83
2022/05/01 11:30:06;;;;;;;11.38;2.40;;;;;;;;;;4949099;28;20055;-82
2022/05/01 11:32:47;;;;;;;5.90;2.20;;;;;;;;;;4949817;28;20482;-82
2022/05/01 11:35:12;;;;;;;3.25;2.10;;;;;;;;;;4952168;29;20030;-82
2022/05/01 11:38:08;;;;;;;5.75;2.22;;;;;;;;;;4952274;28;20035;-82
2022/05/01 11:40:34;;;;;;;3.25;1.83;;;;;;;;;;4931981;28;20079;-82
2022/05/01 11:43:16;;;;;;;5.53;2.20;;;;;;;;;;4950593;28;20023;-82
2022/05/01 11:45:42;;;;;;;2.53;1.75;;;;;;;;;;4948818;29;20096;-79
2022/05/01 11:48:18;;;;;;;2.45;1.75;;;;;;;;;;4936166;28;20125;-81
2022/05/01 11:50:45;;;;;;;2.35;2.00;;;;;;;;;;4953625;28;20031;-81
2022/05/01 11:53:30;;;;;;;6.43;1.88;;;;;;;;;;4932837;29;20032;-81
2022/05/01 12:04:29;;;;;;;3.35;1.60;;;;;;;;;;4952331;28;20378;-81
2022/05/01 12:07:17;;;;;;;4.53;1.80;;;;;;;;;;4948366;29;20035;-81
2022/05/01 12:09:47;;;;;;;13.32;2.00;;;;;;;;;;4968652;28;20142;-80
2022/05/01 12:12:16;;;;;;;4.10;2.05;;;;;;;;;;4943630;28;20037;-80
2022/05/01 12:14:43;;;;;;;2.40;1.50;;;;;;;;;;4954289;28;20033;-80
2022/05/01 12:17:11;;;;;;;2.50;1.70;;;;;;;;;;4954338;28;20058;-80
2022/05/01 12:19:38;;;;;;;4.20;1.83;;;;;;;;;;4938783;28;20038;-80
2022/05/01 12:22:08;;;;;;;6.72;2.08;;;;;;;;;;4969499;28;20046;-80
2022/05/01 12:24:35;;;;;;;3.00;1.58;;;;;;;;;;4954151;28;20473;-80
2022/05/01 12:27:00;;;;;;;3.30;1.60;;;;;;;;;;4954307;28;20112;-80
2022/05/01 12:29:27;;;;;;;7.65;1.83;;;;;;;;;;4970450;28;20054;-79
2022/05/01 12:32:20;;;;;;;2.78;1.73;;;;;;;;;;4950636;28;20099;-80
2022/05/01 12:34:48;;;;;;;3.50;1.73;;;;;;;;;;4950732;28;20050;-81
2022/05/01 12:37:15;;;;;;;4.53;1.67;;;;;;;;;;4953779;28;20062;-80
2022/05/01 12:39:41;;;;;;;3.13;1.65;;;;;;;;;;4970216;28;20031;-80
2022/05/01 12:45:18;;;;;;;2.85;1.60;;;;;;;;;;4950161;28;20481;-80
2022/05/01 12:47:46;;;;;;;1.73;1.52;;;;;;;;;;4953392;28;20036;-81
2022/05/01 12:50:21;;;;;;;4.93;1.83;;;;;;;;;;4947789;28;20028;-80
2022/05/01 12:52:48;;;;;;;1.67;1.40;;;;;;;;;;4947816;28;20477;-82
2022/05/01 12:55:15;;;;;;;4.45;2.03;;;;;;;;;;4951044;28;20458;-81
2022/05/01 12:57:50;;;;;;;2.55;1.60;;;;;;;;;;4947612;28;20031;-81
2022/05/01 13:00:38;;;;;;;3.03;1.40;;;;;;;;;;4950881;28;20116;-81
2022/05/01 13:03:24;;;;;;;1.58;1.40;;;;;;;;;;4949085;28;20027;-81
2022/05/01 13:06:09;;;;;;;5.68;1.60;;;;;;;;;;4952702;28;20020;-82
2022/05/01 13:08:36;;;;;;;2.42;1.52;;;;;;;;;;4947480;28;20039;-81
2022/05/01 13:11:19;;;;;;;2.33;1.60;;;;;;;;;;4953477;28;20055;-80
2022/05/01 13:13:46;;;;;;;4.60;1.65;;;;;;;;;;4953776;28;20031;-81
2022/05/01 13:16:12;;;;;;;7.75;2.03;;;;;;;;;;4959065;28;20121;-81
2022/05/01 13:18:37;;;;;;;7.18;2.75;;;;;;;;;;4959856;28;20046;-82
2022/05/01 13:21:03;;;;;;;6.75;2.58;;;;;;;;;;4960261;28;20054;-86
2022/05/01 13:23:29;;;;;;;6.65;2.25;;;;;;;;;;4977376;28;20450;-80
2022/05/01 13:25:55;;;;;;;9.43;2.88;;;;;;;;;;4962066;28;20022;-80
2022/05/01 13:28:20;;;;;;;10.13;2.75;;;;;;;;;;4962031;28;20381;-81
2022/05/01 13:30:46;;;;;;;12.43;2.53;;;;;;;;;;4946607;28;20039;-80
2022/05/01 13:33:12;;;;;;;26.83;3.45;;;;;;;;;;4946182;28;20031;-81
2022/05/01 13:35:37;;;;;;;10.65;2.90;;;;;;;;;;4946443;28;20038;-82
2022/05/01 13:38:03;;;;;;;8.13;3.42;;;;;;;;;;4961975;28;20125;-80
2022/05/01 13:45:56;;;;;;;;;;;;;;;;;;4979929;28;20046;-79
2022/05/01 13:48:21;;;;;;;9.37;2.57;;;;;;;;;;4961668;28;20218;-78
2022/05/01 13:50:47;;;;;;;4.10;2.40;;;;;;;;;;4979263;28;20272;-79
2022/05/01 13:53:13;;;;;;;8.27;2.60;;;;;;;;;;4961660;28;20031;-78
2022/05/01 13:55:39;;;;;;;7.15;2.53;;;;;;;;;;4961625;28;20049;-77
2022/05/01 13:58:06;;;;;;;6.35;2.90;;;;;;;;;;4962111;28;20097;-78
2022/05/01 14:00:33;;;;;;;11.77;3.30;;;;;;;;;;4979257;28;20034;-78
2022/05/01 14:03:00;;;;;;;9.32;2.65;;;;;;;;;;4961986;28;20030;-78
2022/05/01 14:05:25;;;;;;;3.97;2.30;;;;;;;;;;4979148;28;20023;-79
2022/05/01 14:07:51;;;;;;;10.68;2.85;;;;;;;;;;4961971;28;20062;-81
2022/05/01 14:10:16;;;;;;;6.15;2.33;;;;;;;;;;4945795;28;20582;-82
2022/05/01 14:12:42;;;;;;;8.02;2.53;;;;;;;;;;4962180;28;20117;-82
2022/05/01 14:15:08;;;;;;;6.15;2.42;;;;;;;;;;4961994;28;20035;-81
2022/05/01 14:17:33;;;;;;;7.15;2.35;;;;;;;;;;4979484;28;20034;-79
2022/05/01 14:19:59;;;;;;;4.70;2.30;;;;;;;;;;4962046;28;20031;-80
2022/05/01 14:22:25;;;;;;;6.28;2.20;;;;;;;;;;4960492;28;20035;-79
2022/05/01 14:24:51;;;;;;;8.43;2.20;;;;;;;;;;4958343;28;20031;-81
2022/05/01 14:27:17;;;;;;;5.68;2.30;;;;;;;;;;4958653;28;20027;-81
2022/05/01 14:29:43;;;;;;;4.00;2.42;;;;;;;;;;4976085;28;20105;-80
2022/05/01 14:32:14;;;;;;;8.73;2.60;;;;;;;;;;4958713;28;20058;-79
2022/05/01 14:34:59;;;;;;;7.50;3.05;;;;;;;;;;4958446;28;20023;-79
2022/05/01 14:37:43;;;;;;;9.07;2.50;;;;;;;;;;4975987;28;20033;-79
2022/05/01 14:40:10;;;;;;;3.85;1.95;;;;;;;;;;4975784;28;20038;-78
2022/05/01 14:42:39;;;;;;;6.10;2.38;;;;;;;;;;4958313;28;20037;-79
2022/05/01 14:45:07;;;;;;;3.45;2.22;;;;;;;;;;4958362;28;20037;-78
2022/05/01 14:48:07;;;;;;;6.82;2.35;;;;;;;;;;4958290;28;20375;-78
2022/05/01 14:50:33;;;;;;;6.28;2.53;;;;;;;;;;4941017;28;20046;-79
2022/05/01 14:52:59;;;;;;;3.28;1.90;;;;;;;;;;4958252;28;20031;-79
2022/05/01 14:55:25;;;;;;;3.45;2.15;;;;;;;;;;4957849;28;20387;-78
2022/05/01 14:57:54;;;;;;;3.05;2.17;;;;;;;;;;4942229;28;20097;-78
2022/05/01 15:08:38;;;;;;;3.75;2.30;;;;;;;;;;4960788;28;20044;-79
2022/05/01 15:11:04;;;;;;;6.72;2.00;;;;;;;;;;4957989;28;20114;-80
2022/05/01 15:13:29;;;;;;;3.15;1.92;;;;;;;;;;4957998;28;20027;-78
2022/05/01 15:16:28;;;;;;;4.25;2.28;;;;;;;;;;4974509;28;20473;-79
2022/05/01 15:19:22;;;;;;;2.60;2.10;;;;;;;;;;4974881;28;20034;-79
2022/05/01 15:22:21;;;;;;;5.05;2.35;;;;;;;;;;4974709;28;20385;-79
2022/05/01 15:24:59;;;;;;;4.22;2.30;;;;;;;;;;4957511;28;20152;-79
2022/05/01 15:27:40;;;;;;;2.47;2.08;;;;;;;;;;4974519;28;20031;-79
2022/05/01 15:30:06;;;;;;;4.82;2.28;;;;;;;;;;4956997;28;20038;-79
2022/05/01 15:33:28;;;;;;;3.03;1.98;;;;;;;;;;4941961;28;20035;-78